sensor_id;sensor_type;location;lat;lon;timestamp;P1;durP1;ratioP1;P2;durP2;ratioP2
22439;SDS011;11387;51.612;7.210;2023-03-21T00:01:52;35.28;;;12.52;;
22439;SDS011;11387;51.612;7.210;2023-03-21T00:04:21;37.85;;;12.45;;
22439;SDS011;11387;51.612;7.210;2023-03-21T00:06:50;26.83;;;11.43;;
22439;SDS011;11387;51.612;7.210;2023-03-21T00:09:18;28.20;;;12.77;;
22439;SDS011;11387;51.612;7.210;2023-03-21T00:11:47;22.65;;;11.90;;
22439;SDS011;11387;51.612;7.210;2023-03-21T00:14:16;28.95;;;11.75;;
22439;SDS011;11387;51.612;7.210;2023-03-21T00:16:46;25.95;;;11.40;;
22439;SDS011;11387;51.612;7.210;2023-03-21T00:19:24;31.67;;;11.57;;
22439;SDS011;11387;51.612;7.210;2023-03-21T00:21:56;23.98;;;11.00;;
22439;SDS011;11387;51.612;7.210;2023-03-21T00:24:35;30.75;;;11.80;;
22439;SDS011;11387;51.612;7.210;2023-03-21T00:27:04;25.65;;;9.95;;
22439;SDS011;11387;51.612;7.210;2023-03-21T00:29:57;33.17;;;11.90;;
22439;SDS011;11387;51.612;7.210;2023-03-21T00:32:25;27.15;;;10.55;;
22439;SDS011;11387;51.612;7.210;2023-03-21T00:34:55;23.35;;;10.68;;
22439;SDS011;11387;51.612;7.210;2023-03-21T00:37:44;23.98;;;10.55;;
22439;SDS011;11387;51.612;7.210;2023-03-21T00:40:13;20.42;;;8.55;;
22439;SDS011;11387;51.612;7.210;2023-03-21T00:43:28;21.92;;;10.13;;
22439;SDS011;11387;51.612;7.210;2023-03-21T00:45:57;27.85;;;8.57;;
22439;SDS011;11387;51.612;7.210;2023-03-21T00:48:26;27.85;;;9.25;;
22439;SDS011;11387;51.612;7.210;2023-03-21T00:50:58;32.75;;;8.30;;
22439;SDS011;11387;51.612;7.210;2023-03-21T00:53:27;25.08;;;7.60;;
22439;SDS011;11387;51.612;7.210;2023-03-21T00:55:57;24.15;;;8.35;;
22439;SDS011;11387;51.612;7.210;2023-03-21T00:58:25;23.75;;;8.05;;
22439;SDS011;11387;51.612;7.210;2023-03-21T01:00:54;13.93;;;7.75;;
22439;SDS011;11387;51.612;7.210;2023-03-21T01:03:26;21.08;;;8.38;;
22439;SDS011;11387;51.612;7.210;2023-03-21T01:05:55;22.95;;;6.95;;
22439;SDS011;11387;51.612;7.210;2023-03-21T01:08:32;22.50;;;7.32;;
22439;SDS011;11387;51.612;7.210;2023-03-21T01:11:18;24.25;;;7.70;;
22439;SDS011;11387;51.612;7.210;2023-03-21T01:13:49;21.60;;;7.15;;
22439;SDS011;11387;51.612;7.210;2023-03-21T01:16:28;18.38;;;6.78;;
22439;SDS011;11387;51.612;7.210;2023-03-21T01:18:56;17.27;;;7.13;;
22439;SDS011;11387;51.612;7.210;2023-03-21T01:21:25;15.25;;;5.82;;
22439;SDS011;11387;51.612;7.210;2023-03-21T01:23:55;22.95;;;5.95;;
22439;SDS011;11387;51.612;7.210;2023-03-21T01:26:24;17.70;;;6.07;;
22439;SDS011;11387;51.612;7.210;2023-03-21T01:28:52;23.58;;;6.70;;
22439;SDS011;11387;51.612;7.210;2023-03-21T01:31:20;17.60;;;6.90;;
22439;SDS011;11387;51.612;7.210;2023-03-21T01:33:49;16.15;;;6.68;;
22439;SDS011;11387;51.612;7.210;2023-03-21T01:36:19;18.20;;;6.70;;
22439;SDS011;11387;51.612;7.210;2023-03-21T01:38:51;26.98;;;6.93;;
22439;SDS011;11387;51.612;7.210;2023-03-21T01:41:23;21.42;;;6.53;;
22439;SDS011;11387;51.612;7.210;2023-03-21T01:44:09;18.77;;;7.05;;
22439;SDS011;11387;51.612;7.210;2023-03-21T01:46:44;19.25;;;6.10;;
22439;SDS011;11387;51.612;7.210;2023-03-21T01:49:34;17.83;;;6.65;;
22439;SDS011;11387;51.612;7.210;2023-03-21T01:52:06;15.90;;;7.13;;
22439;SDS011;11387;51.612;7.210;2023-03-21T01:54:49;21.58;;;6.95;;
22439;SDS011;11387;51.612;7.210;2023-03-21T01:57:23;17.90;;;7.18;;
22439;SDS011;11387;51.612;7.210;2023-03-21T02:00:10;15.13;;;6.85;;
22439;SDS011;11387;51.612;7.210;2023-03-21T02:02:42;20.27;;;6.93;;
22439;SDS011;11387;51.612;7.210;2023-03-21T02:05:20;20.98;;;7.45;;
22439;SDS011;11387;51.612;7.210;2023-03-21T02:07:58;22.05;;;8.35;;
22439;SDS011;11387;51.612;7.210;2023-03-21T02:10:35;19.70;;;8.88;;
22439;SDS011;11387;51.612;7.210;2023-03-21T02:16:24;16.70;;;8.05;;
22439;SDS011;11387;51.612;7.210;2023-03-21T02:19:29;20.85;;;7.22;;
22439;SDS011;11387;51.612;7.210;2023-03-21T02:22:23;16.15;;;8.07;;
22439;SDS011;11387;51.612;7.210;2023-03-21T02:28:08;17.90;;;8.10;;
22439;SDS011;11387;51.612;7.210;2023-03-21T02:30:54;23.42;;;8.88;;
22439;SDS011;11387;51.612;7.210;2023-03-21T02:34:21;17.20;;;8.23;;
22439;SDS011;11387;51.612;7.210;2023-03-21T02:37:17;21.00;;;8.18;;
22439;SDS011;11387;51.612;7.210;2023-03-21T02:40:10;25.52;;;10.23;;
22439;SDS011;11387;51.612;7.210;2023-03-21T02:42:46;28.55;;;8.98;;
22439;SDS011;11387;51.612;7.210;2023-03-21T02:45:28;21.25;;;9.05;;
22439;SDS011;11387;51.612;7.210;2023-03-21T02:48:03;21.35;;;9.02;;
22439;SDS011;11387;51.612;7.210;2023-03-21T02:50:52;21.08;;;9.43;;
22439;SDS011;11387;51.612;7.210;2023-03-21T02:53:27;22.30;;;8.93;;
22439;SDS011;11387;51.612;7.210;2023-03-21T02:56:00;19.58;;;9.52;;
22439;SDS011;11387;51.612;7.210;2023-03-21T02:58:29;21.17;;;9.45;;
22439;SDS011;11387;51.612;7.210;2023-03-21T03:00:59;21.33;;;9.82;;
22439;SDS011;11387;51.612;7.210;2023-03-21T03:03:28;26.35;;;9.60;;
22439;SDS011;11387;51.612;7.210;2023-03-21T03:06:01;23.75;;;11.30;;
22439;SDS011;11387;51.612;7.210;2023-03-21T03:08:37;24.15;;;9.90;;
22439;SDS011;11387;51.612;7.210;2023-03-21T03:11:27;30.25;;;10.70;;
22439;SDS011;11387;51.612;7.210;2023-03-21T03:14:08;26.67;;;10.55;;
22439;SDS011;11387;51.612;7.210;2023-03-21T03:17:16;27.08;;;10.10;;
22439;SDS011;11387;51.612;7.210;2023-03-21T03:20:00;28.88;;;11.02;;
22439;SDS011;11387;51.612;7.210;2023-03-21T03:22:45;36.58;;;11.85;;
22439;SDS011;11387;51.612;7.210;2023-03-21T03:25:25;32.17;;;10.10;;
22439;SDS011;11387;51.612;7.210;2023-03-21T03:28:11;25.77;;;9.88;;
22439;SDS011;11387;51.612;7.210;2023-03-21T03:30:41;20.95;;;10.82;;
22439;SDS011;11387;51.612;7.210;2023-03-21T03:33:32;21.30;;;10.02;;
22439;SDS011;11387;51.612;7.210;2023-03-21T03:36:04;27.42;;;10.38;;
22439;SDS011;11387;51.612;7.210;2023-03-21T03:38:44;28.85;;;12.18;;
22439;SDS011;11387;51.612;7.210;2023-03-21T03:41:18;25.27;;;11.18;;
22439;SDS011;11387;51.612;7.210;2023-03-21T03:43:52;28.40;;;12.77;;
22439;SDS011;11387;51.612;7.210;2023-03-21T03:46:27;24.05;;;11.20;;
22439;SDS011;11387;51.612;7.210;2023-03-21T03:49:00;29.33;;;10.70;;
22439;SDS011;11387;51.612;7.210;2023-03-21T03:51:33;25.08;;;11.48;;
22439;SDS011;11387;51.612;7.210;2023-03-21T03:54:07;32.65;;;11.48;;
22439;SDS011;11387;51.612;7.210;2023-03-21T03:56:41;28.77;;;10.85;;
22439;SDS011;11387;51.612;7.210;2023-03-21T03:59:10;29.55;;;12.15;;
22439;SDS011;11387;51.612;7.210;2023-03-21T04:01:40;27.88;;;11.65;;
22439;SDS011;11387;51.612;7.210;2023-03-21T04:04:09;28.25;;;11.82;;
22439;SDS011;11387;51.612;7.210;2023-03-21T04:06:39;27.10;;;10.98;;
22439;SDS011;11387;51.612;7.210;2023-03-21T04:09:08;22.92;;;12.23;;
22439;SDS011;11387;51.612;7.210;2023-03-21T04:11:49;24.70;;;10.85;;
22439;SDS011;11387;51.612;7.210;2023-03-21T04:14:17;30.90;;;11.27;;
22439;SDS011;11387;51.612;7.210;2023-03-21T04:16:46;25.27;;;11.95;;
22439;SDS011;11387;51.612;7.210;2023-03-21T04:19:15;24.08;;;11.88;;
22439;SDS011;11387;51.612;7.210;2023-03-21T04:21:44;28.10;;;12.27;;
22439;SDS011;11387;51.612;7.210;2023-03-21T04:24:13;25.15;;;12.25;;
22439;SDS011;11387;51.612;7.210;2023-03-21T04:26:43;25.45;;;11.23;;
22439;SDS011;11387;51.612;7.210;2023-03-21T04:29:13;32.90;;;11.23;;
22439;SDS011;11387;51.612;7.210;2023-03-21T04:31:41;18.58;;;10.90;;
22439;SDS011;11387;51.612;7.210;2023-03-21T04:34:10;21.05;;;11.20;;
22439;SDS011;11387;51.612;7.210;2023-03-21T04:36:39;25.35;;;10.77;;
22439;SDS011;11387;51.612;7.210;2023-03-21T04:39:11;21.35;;;10.80;;
22439;SDS011;11387;51.612;7.210;2023-03-21T04:41:40;19.92;;;10.05;;
22439;SDS011;11387;51.612;7.210;2023-03-21T04:44:10;19.65;;;10.43;;
22439;SDS011;11387;51.612;7.210;2023-03-21T04:46:41;25.55;;;10.30;;
22439;SDS011;11387;51.612;7.210;2023-03-21T04:49:10;22.65;;;9.65;;
22439;SDS011;11387;51.612;7.210;2023-03-21T04:51:38;23.73;;;11.65;;
22439;SDS011;11387;51.612;7.210;2023-03-21T04:54:07;25.00;;;10.52;;
22439;SDS011;11387;51.612;7.210;2023-03-21T04:56:34;24.30;;;10.35;;
22439;SDS011;11387;51.612;7.210;2023-03-21T04:59:05;22.15;;;10.75;;
22439;SDS011;11387;51.612;7.210;2023-03-21T05:01:36;21.80;;;9.73;;
22439;SDS011;11387;51.612;7.210;2023-03-21T05:04:07;21.45;;;9.65;;
22439;SDS011;11387;51.612;7.210;2023-03-21T05:06:35;24.70;;;10.40;;
22439;SDS011;11387;51.612;7.210;2023-03-21T05:09:04;21.70;;;10.13;;
22439;SDS011;11387;51.612;7.210;2023-03-21T05:11:34;22.48;;;10.43;;
22439;SDS011;11387;51.612;7.210;2023-03-21T05:14:04;31.00;;;10.40;;
22439;SDS011;11387;51.612;7.210;2023-03-21T05:16:34;22.17;;;9.40;;
22439;SDS011;11387;51.612;7.210;2023-03-21T05:19:06;25.77;;;10.77;;
22439;SDS011;11387;51.612;7.210;2023-03-21T05:21:34;23.80;;;11.45;;
22439;SDS011;11387;51.612;7.210;2023-03-21T05:24:08;29.98;;;11.13;;
22439;SDS011;11387;51.612;7.210;2023-03-21T05:26:41;25.70;;;10.85;;
22439;SDS011;11387;51.612;7.210;2023-03-21T05:29:10;22.15;;;9.73;;
22439;SDS011;11387;51.612;7.210;2023-03-21T05:31:47;23.33;;;10.75;;
22439;SDS011;11387;51.612;7.210;2023-03-21T05:34:17;28.40;;;11.38;;
22439;SDS011;11387;51.612;7.210;2023-03-21T05:36:45;23.08;;;10.18;;
22439;SDS011;11387;51.612;7.210;2023-03-21T05:39:13;24.33;;;10.48;;
22439;SDS011;11387;51.612;7.210;2023-03-21T05:41:42;23.25;;;10.25;;
22439;SDS011;11387;51.612;7.210;2023-03-21T05:44:11;23.50;;;9.80;;
22439;SDS011;11387;51.612;7.210;2023-03-21T05:46:40;23.08;;;10.00;;
22439;SDS011;11387;51.612;7.210;2023-03-21T05:49:09;26.65;;;10.52;;
22439;SDS011;11387;51.612;7.210;2023-03-21T05:51:40;23.90;;;11.13;;
22439;SDS011;11387;51.612;7.210;2023-03-21T05:54:08;28.52;;;10.23;;
22439;SDS011;11387;51.612;7.210;2023-03-21T05:56:42;22.70;;;9.95;;
22439;SDS011;11387;51.612;7.210;2023-03-21T05:59:11;17.88;;;9.55;;
22439;SDS011;11387;51.612;7.210;2023-03-21T06:01:39;22.55;;;9.88;;
22439;SDS011;11387;51.612;7.210;2023-03-21T06:04:08;29.33;;;11.25;;
22439;SDS011;11387;51.612;7.210;2023-03-21T06:06:36;25.27;;;10.35;;
22439;SDS011;11387;51.612;7.210;2023-03-21T06:09:06;24.00;;;10.25;;
22439;SDS011;11387;51.612;7.210;2023-03-21T06:11:35;26.48;;;10.82;;
22439;SDS011;11387;51.612;7.210;2023-03-21T06:14:05;18.13;;;10.55;;
22439;SDS011;11387;51.612;7.210;2023-03-21T06:16:34;27.63;;;10.77;;
22439;SDS011;11387;51.612;7.210;2023-03-21T06:19:03;27.85;;;11.55;;
22439;SDS011;11387;51.612;7.210;2023-03-21T06:21:31;24.20;;;11.82;;
22439;SDS011;11387;51.612;7.210;2023-03-21T06:24:00;33.80;;;13.52;;
22439;SDS011;11387;51.612;7.210;2023-03-21T06:26:38;24.70;;;12.20;;
22439;SDS011;11387;51.612;7.210;2023-03-21T06:29:08;41.17;;;14.70;;
22439;SDS011;11387;51.612;7.210;2023-03-21T06:31:37;29.02;;;13.27;;
22439;SDS011;11387;51.612;7.210;2023-03-21T06:34:06;33.90;;;14.35;;
22439;SDS011;11387;51.612;7.210;2023-03-21T06:36:36;47.95;;;16.08;;
22439;SDS011;11387;51.612;7.210;2023-03-21T06:39:05;41.92;;;16.20;;
22439;SDS011;11387;51.612;7.210;2023-03-21T06:41:34;45.88;;;17.17;;
22439;SDS011;11387;51.612;7.210;2023-03-21T06:44:06;39.40;;;15.82;;
22439;SDS011;11387;51.612;7.210;2023-03-21T06:46:35;42.78;;;16.13;;
22439;SDS011;11387;51.612;7.210;2023-03-21T06:49:04;39.08;;;15.90;;
22439;SDS011;11387;51.612;7.210;2023-03-21T06:51:32;42.90;;;17.63;;
22439;SDS011;11387;51.612;7.210;2023-03-21T06:54:01;34.60;;;16.50;;
22439;SDS011;11387;51.612;7.210;2023-03-21T06:56:29;32.63;;;16.13;;
22439;SDS011;11387;51.612;7.210;2023-03-21T06:58:58;39.55;;;15.70;;
22439;SDS011;11387;51.612;7.210;2023-03-21T07:01:28;37.13;;;15.85;;
22439;SDS011;11387;51.612;7.210;2023-03-21T07:03:56;47.22;;;16.83;;
22439;SDS011;11387;51.612;7.210;2023-03-21T07:06:25;36.33;;;16.98;;
22439;SDS011;11387;51.612;7.210;2023-03-21T07:08:54;36.60;;;14.48;;
22439;SDS011;11387;51.612;7.210;2023-03-21T07:11:23;43.55;;;15.40;;
22439;SDS011;11387;51.612;7.210;2023-03-21T07:13:51;39.42;;;15.60;;
22439;SDS011;11387;51.612;7.210;2023-03-21T07:16:20;32.47;;;15.60;;
22439;SDS011;11387;51.612;7.210;2023-03-21T07:18:50;38.95;;;15.73;;
22439;SDS011;11387;51.612;7.210;2023-03-21T07:21:19;30.00;;;15.45;;
22439;SDS011;11387;51.612;7.210;2023-03-21T07:23:47;37.88;;;16.55;;
22439;SDS011;11387;51.612;7.210;2023-03-21T07:26:16;43.25;;;14.02;;
22439;SDS011;11387;51.612;7.210;2023-03-21T07:28:45;28.15;;;13.85;;
22439;SDS011;11387;51.612;7.210;2023-03-21T07:31:14;31.42;;;12.52;;
22439;SDS011;11387;51.612;7.210;2023-03-21T07:33:44;36.17;;;13.05;;
22439;SDS011;11387;51.612;7.210;2023-03-21T07:36:14;34.42;;;14.07;;
22439;SDS011;11387;51.612;7.210;2023-03-21T07:38:43;29.67;;;13.68;;
22439;SDS011;11387;51.612;7.210;2023-03-21T07:41:13;28.02;;;12.93;;
22439;SDS011;11387;51.612;7.210;2023-03-21T07:43:42;31.15;;;15.43;;
22439;SDS011;11387;51.612;7.210;2023-03-21T07:46:11;37.47;;;12.93;;
22439;SDS011;11387;51.612;7.210;2023-03-21T07:48:40;31.88;;;12.35;;
22439;SDS011;11387;51.612;7.210;2023-03-21T07:51:08;35.83;;;14.95;;
22439;SDS011;11387;51.612;7.210;2023-03-21T07:53:38;36.03;;;13.70;;
22439;SDS011;11387;51.612;7.210;2023-03-21T07:56:08;30.73;;;13.15;;
22439;SDS011;11387;51.612;7.210;2023-03-21T07:58:37;43.22;;;14.27;;
22439;SDS011;11387;51.612;7.210;2023-03-21T08:01:05;34.95;;;13.10;;
22439;SDS011;11387;51.612;7.210;2023-03-21T08:03:34;36.42;;;13.05;;
22439;SDS011;11387;51.612;7.210;2023-03-21T08:06:04;26.08;;;12.15;;
22439;SDS011;11387;51.612;7.210;2023-03-21T08:08:33;33.28;;;12.05;;
22439;SDS011;11387;51.612;7.210;2023-03-21T08:11:03;31.50;;;14.38;;
22439;SDS011;11387;51.612;7.210;2023-03-21T08:13:32;27.05;;;12.90;;
22439;SDS011;11387;51.612;7.210;2023-03-21T08:16:01;21.73;;;11.48;;
22439;SDS011;11387;51.612;7.210;2023-03-21T08:18:29;28.23;;;11.25;;
22439;SDS011;11387;51.612;7.210;2023-03-21T08:20:58;25.17;;;10.18;;
22439;SDS011;11387;51.612;7.210;2023-03-21T08:23:27;30.42;;;11.85;;
22439;SDS011;11387;51.612;7.210;2023-03-21T08:25:55;26.70;;;10.80;;
22439;SDS011;11387;51.612;7.210;2023-03-21T08:28:26;31.75;;;10.85;;
22439;SDS011;11387;51.612;7.210;2023-03-21T08:30:55;23.50;;;11.02;;
22439;SDS011;11387;51.612;7.210;2023-03-21T08:33:23;30.58;;;11.70;;
22439;SDS011;11387;51.612;7.210;2023-03-21T08:35:52;22.80;;;11.45;;
22439;SDS011;11387;51.612;7.210;2023-03-21T08:38:20;32.63;;;11.77;;
22439;SDS011;11387;51.612;7.210;2023-03-21T08:40:49;24.83;;;9.75;;
22439;SDS011;11387;51.612;7.210;2023-03-21T08:43:17;29.67;;;10.80;;
22439;SDS011;11387;51.612;7.210;2023-03-21T08:45:47;23.90;;;8.90;;
22439;SDS011;11387;51.612;7.210;2023-03-21T08:48:16;23.52;;;9.15;;
22439;SDS011;11387;51.612;7.210;2023-03-21T08:50:45;15.77;;;8.43;;
22439;SDS011;11387;51.612;7.210;2023-03-21T08:53:14;21.25;;;9.30;;
22439;SDS011;11387;51.612;7.210;2023-03-21T08:55:42;17.65;;;7.68;;
22439;SDS011;11387;51.612;7.210;2023-03-21T08:58:11;15.00;;;6.53;;
22439;SDS011;11387;51.612;7.210;2023-03-21T09:00:40;24.42;;;8.73;;
22439;SDS011;11387;51.612;7.210;2023-03-21T09:03:09;21.50;;;8.35;;
22439;SDS011;11387;51.612;7.210;2023-03-21T09:05:38;24.23;;;8.40;;
22439;SDS011;11387;51.612;7.210;2023-03-21T09:08:06;24.83;;;8.07;;
22439;SDS011;11387;51.612;7.210;2023-03-21T09:10:37;22.95;;;7.32;;
22439;SDS011;11387;51.612;7.210;2023-03-21T09:13:06;11.60;;;6.53;;
22439;SDS011;11387;51.612;7.210;2023-03-21T09:15:34;13.73;;;6.75;;
22439;SDS011;11387;51.612;7.210;2023-03-21T09:18:04;21.10;;;7.22;;
22439;SDS011;11387;51.612;7.210;2023-03-21T09:20:42;13.05;;;6.38;;
22439;SDS011;11387;51.612;7.210;2023-03-21T09:23:13;22.23;;;7.25;;
22439;SDS011;11387;51.612;7.210;2023-03-21T09:25:43;17.35;;;7.60;;
22439;SDS011;11387;51.612;7.210;2023-03-21T09:28:12;16.92;;;8.23;;
22439;SDS011;11387;51.612;7.210;2023-03-21T09:30:40;17.25;;;7.93;;
22439;SDS011;11387;51.612;7.210;2023-03-21T09:33:09;22.63;;;8.25;;
22439;SDS011;11387;51.612;7.210;2023-03-21T09:35:39;25.38;;;8.90;;
22439;SDS011;11387;51.612;7.210;2023-03-21T09:38:10;16.98;;;8.23;;
22439;SDS011;11387;51.612;7.210;2023-03-21T09:40:44;24.25;;;8.23;;
22439;SDS011;11387;51.612;7.210;2023-03-21T09:43:29;17.48;;;7.72;;
22439;SDS011;11387;51.612;7.210;2023-03-21T09:46:09;22.35;;;7.45;;
22439;SDS011;11387;51.612;7.210;2023-03-21T09:48:45;22.48;;;8.95;;
22439;SDS011;11387;51.612;7.210;2023-03-21T09:51:24;15.18;;;8.25;;
22439;SDS011;11387;51.612;7.210;2023-03-21T09:53:56;18.08;;;8.98;;
22439;SDS011;11387;51.612;7.210;2023-03-21T09:56:30;21.75;;;9.68;;
22439;SDS011;11387;51.612;7.210;2023-03-21T09:58:59;22.23;;;10.55;;
22439;SDS011;11387;51.612;7.210;2023-03-21T10:01:29;24.13;;;10.57;;
22439;SDS011;11387;51.612;7.210;2023-03-21T10:04:01;31.98;;;11.10;;
22439;SDS011;11387;51.612;7.210;2023-03-21T10:06:33;26.17;;;11.23;;
22439;SDS011;11387;51.612;7.210;2023-03-21T10:09:10;18.90;;;12.38;;
22439;SDS011;11387;51.612;7.210;2023-03-21T10:11:42;27.38;;;13.02;;
22439;SDS011;11387;51.612;7.210;2023-03-21T10:14:15;30.20;;;12.88;;
22439;SDS011;11387;51.612;7.210;2023-03-21T10:16:48;23.42;;;12.55;;
22439;SDS011;11387;51.612;7.210;2023-03-21T10:19:19;29.73;;;12.05;;
22439;SDS011;11387;51.612;7.210;2023-03-21T10:21:49;28.63;;;11.88;;
22439;SDS011;11387;51.612;7.210;2023-03-21T10:24:32;24.27;;;10.02;;
22439;SDS011;11387;51.612;7.210;2023-03-21T10:27:02;30.70;;;9.75;;
22439;SDS011;11387;51.612;7.210;2023-03-21T10:29:39;22.83;;;9.10;;
22439;SDS011;11387;51.612;7.210;2023-03-21T10:32:10;25.80;;;9.60;;
22439;SDS011;11387;51.612;7.210;2023-03-21T10:34:43;28.27;;;8.93;;
22439;SDS011;11387;51.612;7.210;2023-03-21T10:37:15;26.10;;;10.20;;
22439;SDS011;11387;51.612;7.210;2023-03-21T10:39:45;15.80;;;9.15;;
22439;SDS011;11387;51.612;7.210;2023-03-21T10:42:17;20.88;;;9.57;;
22439;SDS011;11387;51.612;7.210;2023-03-21T10:44:50;18.75;;;8.70;;
22439;SDS011;11387;51.612;7.210;2023-03-21T10:47:20;20.20;;;9.18;;
22439;SDS011;11387;51.612;7.210;2023-03-21T10:49:52;19.65;;;7.88;;
22439;SDS011;11387;51.612;7.210;2023-03-21T10:52:41;20.67;;;8.60;;
22439;SDS011;11387;51.612;7.210;2023-03-21T10:55:18;22.45;;;7.25;;
22439;SDS011;11387;51.612;7.210;2023-03-21T10:57:54;25.42;;;7.25;;
22439;SDS011;11387;51.612;7.210;2023-03-21T11:00:27;18.15;;;6.70;;
22439;SDS011;11387;51.612;7.210;2023-03-21T11:03:01;18.92;;;7.15;;
22439;SDS011;11387;51.612;7.210;2023-03-21T11:05:33;14.75;;;5.65;;
22439;SDS011;11387;51.612;7.210;2023-03-21T11:08:06;17.05;;;6.20;;
22439;SDS011;11387;51.612;7.210;2023-03-21T11:10:49;15.10;;;6.70;;
22439;SDS011;11387;51.612;7.210;2023-03-21T11:13:22;17.85;;;7.00;;
22439;SDS011;11387;51.612;7.210;2023-03-21T11:15:56;18.63;;;6.32;;
22439;SDS011;11387;51.612;7.210;2023-03-21T11:18:26;18.70;;;7.80;;
22439;SDS011;11387;51.612;7.210;2023-03-21T11:21:01;12.05;;;6.22;;
22439;SDS011;11387;51.612;7.210;2023-03-21T11:23:32;15.85;;;6.47;;
22439;SDS011;11387;51.612;7.210;2023-03-21T11:26:08;19.67;;;7.75;;
22439;SDS011;11387;51.612;7.210;2023-03-21T11:28:39;15.07;;;6.75;;
22439;SDS011;11387;51.612;7.210;2023-03-21T11:31:11;14.48;;;6.18;;
22439;SDS011;11387;51.612;7.210;2023-03-21T11:33:41;17.30;;;5.82;;
22439;SDS011;11387;51.612;7.210;2023-03-21T11:36:25;15.65;;;6.90;;
22439;SDS011;11387;51.612;7.210;2023-03-21T11:39:02;16.65;;;7.50;;
22439;SDS011;11387;51.612;7.210;2023-03-21T11:41:46;16.40;;;7.07;;
22439;SDS011;11387;51.612;7.210;2023-03-21T11:44:28;15.90;;;6.47;;
22439;SDS011;11387;51.612;7.210;2023-03-21T11:46:59;19.17;;;6.32;;
22439;SDS011;11387;51.612;7.210;2023-03-21T11:49:29;16.08;;;7.45;;
22439;SDS011;11387;51.612;7.210;2023-03-21T11:52:07;21.70;;;7.07;;
22439;SDS011;11387;51.612;7.210;2023-03-21T11:57:47;15.20;;;6.85;;
22439;SDS011;11387;51.612;7.210;2023-03-21T12:00:42;13.70;;;6.50;;
22439;SDS011;11387;51.612;7.210;2023-03-21T12:03:33;14.70;;;5.75;;
22439;SDS011;11387;51.612;7.210;2023-03-21T12:06:17;16.30;;;5.78;;
22439;SDS011;11387;51.612;7.210;2023-03-21T12:08:55;14.98;;;6.07;;
22439;SDS011;11387;51.612;7.210;2023-03-21T12:11:34;15.68;;;5.65;;
22439;SDS011;11387;51.612;7.210;2023-03-21T12:14:29;19.98;;;5.35;;
22439;SDS011;11387;51.612;7.210;2023-03-21T12:17:19;11.75;;;4.85;;
22439;SDS011;11387;51.612;7.210;2023-03-21T12:20:02;13.88;;;4.40;;
22439;SDS011;11387;51.612;7.210;2023-03-21T12:22:43;11.95;;;4.03;;
22439;SDS011;11387;51.612;7.210;2023-03-21T12:25:21;9.93;;;4.78;;
22439;SDS011;11387;51.612;7.210;2023-03-21T12:27:57;13.77;;;5.28;;
22439;SDS011;11387;51.612;7.210;2023-03-21T12:30:39;12.65;;;4.40;;
22439;SDS011;11387;51.612;7.210;2023-03-21T12:33:32;9.73;;;3.65;;
22439;SDS011;11387;51.612;7.210;2023-03-21T12:36:17;10.60;;;4.22;;
22439;SDS011;11387;51.612;7.210;2023-03-21T12:38:56;10.95;;;3.20;;
22439;SDS011;11387;51.612;7.210;2023-03-21T12:41:33;9.45;;;3.40;;
22439;SDS011;11387;51.612;7.210;2023-03-21T12:44:11;7.22;;;2.63;;
22439;SDS011;11387;51.612;7.210;2023-03-21T12:46:43;13.15;;;4.93;;
22439;SDS011;11387;51.612;7.210;2023-03-21T12:49:15;8.23;;;3.38;;
22439;SDS011;11387;51.612;7.210;2023-03-21T12:51:49;8.07;;;3.20;;
22439;SDS011;11387;51.612;7.210;2023-03-21T12:54:22;9.38;;;3.55;;
22439;SDS011;11387;51.612;7.210;2023-03-21T12:56:56;9.07;;;2.90;;
22439;SDS011;11387;51.612;7.210;2023-03-21T12:59:33;8.93;;;3.35;;
22439;SDS011;11387;51.612;7.210;2023-03-21T13:02:13;20.02;;;3.63;;
22439;SDS011;11387;51.612;7.210;2023-03-21T13:04:48;10.20;;;3.05;;
22439;SDS011;11387;51.612;7.210;2023-03-21T13:07:28;6.35;;;2.42;;
22439;SDS011;11387;51.612;7.210;2023-03-21T13:10:00;8.25;;;2.42;;
22439;SDS011;11387;51.612;7.210;2023-03-21T13:12:40;8.98;;;3.10;;
22439;SDS011;11387;51.612;7.210;2023-03-21T13:15:23;6.07;;;2.80;;
22439;SDS011;11387;51.612;7.210;2023-03-21T13:18:09;6.75;;;3.45;;
22439;SDS011;11387;51.612;7.210;2023-03-21T13:20:43;9.43;;;3.10;;
22439;SDS011;11387;51.612;7.210;2023-03-21T13:23:16;8.63;;;3.38;;
22439;SDS011;11387;51.612;7.210;2023-03-21T13:25:46;10.63;;;2.30;;
22439;SDS011;11387;51.612;7.210;2023-03-21T13:28:17;6.00;;;2.53;;
22439;SDS011;11387;51.612;7.210;2023-03-21T13:30:48;7.00;;;2.80;;
22439;SDS011;11387;51.612;7.210;2023-03-21T13:33:25;7.15;;;2.72;;
22439;SDS011;11387;51.612;7.210;2023-03-21T13:35:58;10.63;;;2.58;;
22439;SDS011;11387;51.612;7.210;2023-03-21T13:38:32;11.82;;;3.17;;
22439;SDS011;11387;51.612;7.210;2023-03-21T13:41:07;9.95;;;3.65;;
22439;SDS011;11387;51.612;7.210;2023-03-21T13:43:40;9.35;;;3.13;;
22439;SDS011;11387;51.612;7.210;2023-03-21T13:46:11;7.10;;;3.72;;
22439;SDS011;11387;51.612;7.210;2023-03-21T13:48:47;10.98;;;3.40;;
22439;SDS011;11387;51.612;7.210;2023-03-21T13:54:15;7.95;;;3.33;;
22439;SDS011;11387;51.612;7.210;2023-03-21T13:56:50;6.45;;;3.08;;
22439;SDS011;11387;51.612;7.210;2023-03-21T13:59:34;8.32;;;3.17;;
22439;SDS011;11387;51.612;7.210;2023-03-21T14:02:17;9.65;;;2.88;;
22439;SDS011;11387;51.612;7.210;2023-03-21T14:04:59;9.40;;;2.80;;
22439;SDS011;11387;51.612;7.210;2023-03-21T14:07:32;8.25;;;3.00;;
22439;SDS011;11387;51.612;7.210;2023-03-21T14:10:04;5.40;;;2.95;;
22439;SDS011;11387;51.612;7.210;2023-03-21T14:12:44;6.15;;;2.97;;
22439;SDS011;11387;51.612;7.210;2023-03-21T14:15:17;10.07;;;4.00;;
22439;SDS011;11387;51.612;7.210;2023-03-21T14:17:50;8.13;;;3.17;;
22439;SDS011;11387;51.612;7.210;2023-03-21T14:20:22;6.97;;;2.78;;
22439;SDS011;11387;51.612;7.210;2023-03-21T14:22:53;11.13;;;3.03;;
22439;SDS011;11387;51.612;7.210;2023-03-21T14:25:22;9.65;;;3.10;;
22439;SDS011;11387;51.612;7.210;2023-03-21T14:28:07;6.57;;;3.30;;
22439;SDS011;11387;51.612;7.210;2023-03-21T14:30:43;8.85;;;3.25;;
22439;SDS011;11387;51.612;7.210;2023-03-21T14:33:13;9.32;;;2.65;;
22439;SDS011;11387;51.612;7.210;2023-03-21T14:35:47;7.93;;;2.95;;
22439;SDS011;11387;51.612;7.210;2023-03-21T14:38:18;5.32;;;2.40;;
22439;SDS011;11387;51.612;7.210;2023-03-21T14:40:50;7.78;;;2.70;;
22439;SDS011;11387;51.612;7.210;2023-03-21T14:43:21;7.72;;;2.75;;
22439;SDS011;11387;51.612;7.210;2023-03-21T14:45:51;5.95;;;2.70;;
22439;SDS011;11387;51.612;7.210;2023-03-21T14:48:27;7.03;;;2.65;;
22439;SDS011;11387;51.612;7.210;2023-03-21T14:51:01;7.70;;;2.45;;
22439;SDS011;11387;51.612;7.210;2023-03-21T14:53:32;9.52;;;3.30;;
22439;SDS011;11387;51.612;7.210;2023-03-21T14:56:05;9.52;;;3.05;;
22439;SDS011;11387;51.612;7.210;2023-03-21T14:58:38;5.75;;;2.35;;
22439;SDS011;11387;51.612;7.210;2023-03-21T15:01:11;7.82;;;4.60;;
22439;SDS011;11387;51.612;7.210;2023-03-21T15:03:43;8.40;;;3.03;;
22439;SDS011;11387;51.612;7.210;2023-03-21T15:06:15;7.40;;;2.40;;
22439;SDS011;11387;51.612;7.210;2023-03-21T15:08:52;6.38;;;2.72;;
22439;SDS011;11387;51.612;7.210;2023-03-21T15:11:28;11.02;;;3.22;;
22439;SDS011;11387;51.612;7.210;2023-03-21T15:13:58;8.48;;;2.80;;
22439;SDS011;11387;51.612;7.210;2023-03-21T15:16:29;8.55;;;3.05;;
22439;SDS011;11387;51.612;7.210;2023-03-21T15:18:58;6.03;;;2.67;;
22439;SDS011;11387;51.612;7.210;2023-03-21T15:21:33;7.63;;;2.83;;